• Join FlightAware (Why Join?)
  • Login
  • US Flag 
08:38PM EDT


 

Airport Tracker/Info


-or-


 

Live Flight TrackerFlight Track Log ✈ CHQ6029 ✈ 26-May-2012 ✈ KLEX - KLGA

Flight Track Log - Related Links

Times and Time Zones

All times are in EDT time to prevent confusion due to time zone crossing. See the CHQ6029 flight status page for this flight to view local times or setup timezone preferences in your user account.

Time Position Orientation Groundspeed Altitude Reporting Facility
EDT Latitude Longitude Course Direction KTS MPH feet Rate Location/Type
07:53AM 37.9669 -84.6372 94° East 190 219 3,900  Level Indianapolis Center
07:57AM 37.9469 -84.2522 94° East 294 338 11,800 1,860 Climbing Indianapolis Center
07:58AM 37.9414 -84.1442 91° East 294 338 13,300 1,380 Climbing Indianapolis Center
07:59AM 37.9397 -84.0311 94° East 307 353 14,700 1,320 Climbing Indianapolis Center
08:00AM 37.9319 -83.8889 94° East 325 374 16,300 1,380 Climbing Indianapolis Center
08:01AM 37.9258 -83.7650 92° East 345 397 17,700 1,200 Climbing Indianapolis Center
08:02AM 37.9219 -83.6386 94° East 350 403 18,700 1,500 Climbing Indianapolis Center
08:03AM 37.9156 -83.5097 92° East 350 403 20,700 1,680 Climbing Indianapolis Center
08:04AM 37.9114 -83.3833 94° East 350 403 22,100 1,560 Climbing Indianapolis Center
08:05AM 37.9050 -83.2594 94° East 350 403 23,900 1,440 Climbing Indianapolis Center
08:06AM 37.8983 -83.1333 94° East 350 403 25,000 540 Climbing Indianapolis Center
08:07AM 37.8914 -82.9992 93° East 364 419 25,000 120 Level Indianapolis Center
08:08AM 37.8864 -82.8650 94° East 369 425 25,300 480 Climbing Indianapolis Center
08:09AM 37.8794 -82.7308 94° East 375 432 26,000 780 Climbing Indianapolis Center
08:10AM 37.8722 -82.5994 94° East 375 432 26,900 1,380 Climbing Indianapolis Center
08:11AM 37.8647 -82.4653 94° East 380 437 28,800 1,860 Climbing Indianapolis Center
08:12AM 37.8572 -82.3364 95° East 367 422 30,700 1,500 Climbing Indianapolis Center
08:13AM 37.8497 -82.2289 96° East 354 407 31,900 1,080 Climbing Indianapolis Center
08:14AM 37.8400 -82.1028 93° East 354 407 32,900 1,020 Climbing Indianapolis Center
08:15AM 37.8342 -81.9714 94° East 354 407 34,000 1,020 Climbing Indianapolis Center
08:16AM 37.8261 -81.8428 94° East 361 415 35,000 300 Climbing Indianapolis Center
08:18AM 37.8058 -81.5164 96° East 399 459 35,000  Level Washington Center
08:19AM 37.7942 -81.3711 94° East 411 473 35,000  Level Washington Center
08:20AM 37.7864 -81.2258 92° East 417 480 35,000  Level Washington Center
08:21AM 37.7831 -81.0706 86° East 410 472 35,000  Level Washington Center
08:22AM 37.7914 -80.9319 85° East 399 459 35,000  Level Washington Center
08:23AM 37.8017 -80.7933 85° East 399 459 35,000  Level Washington Center
08:24AM 37.8119 -80.6519 86° East 399 459 35,000  Level Washington Center
08:25AM 37.8200 -80.5106 85° East 404 465 35,000  Level Washington Center
08:26AM 37.8297 -80.3744 85° East 414 476 35,000  Level Washington Center
08:27AM 37.8397 -80.2253 86° East 420 483 35,000  Level Washington Center
08:28AM 37.8472 -80.0808 84° East 420 483 35,000  Level Washington Center
08:29AM 37.8592 -79.9317 86° East 420 483 35,000  Level Washington Center
08:30AM 37.8669 -79.7717 84° East 420 483 35,000  Level Washington Center
08:31AM 37.8781 -79.6250 85° East 420 483 35,000  Level Washington Center
08:32AM 37.8869 -79.4808 88° East 420 483 35,000  Level Washington Center
08:33AM 37.8917 -79.3364 86° East 420 483 35,000  Level Washington Center
08:34AM 37.9003 -79.1919 85° East 415 478 35,000  Level Washington Center
08:35AM 37.9106 -79.0528 81° East 409 471 35,000  Level Washington Center
08:36AM 37.9269 -78.9219 82° East 409 471 35,000  Level Washington Center
08:37AM 37.9431 -78.7831 82° East 404 465 35,000  Level Washington Center
08:38AM 37.9592 -78.6442 81° East 404 465 35,000  Level Washington Center
08:39AM 37.9775 -78.5028 81° East 404 465 35,000  Level Washington Center
08:40AM 37.9956 -78.3506 82° East 404 465 35,000  Level Washington Center
08:41AM 38.0114 -78.2089 86° East 404 465 35,000  Level Washington Center
08:42AM 38.0183 -78.0694 86° East 404 465 35,000  Level Washington Center
08:43AM 38.0253 -77.9406 86° East 404 465 35,000  Level Washington Center
08:44AM 38.0344 -77.7825 84° East 409 471 35,000  Level Washington Center
08:45AM 38.0453 -77.6431 67° East 404 465 35,000  Level Washington Center
08:46AM 38.0889 -77.5150 57° Northeast 391 450 35,000  Level Washington Center
08:47AM 38.1514 -77.3925 57° Northeast 391 450 35,000  Level Washington Center
08:48AM 38.2158 -77.2644 56° Northeast 410 472 35,000  Level Washington Center
08:49AM 38.2758 -77.1494 57° Northeast 431 496 35,000 -780 Level Washington Center
08:50AM 38.3483 -77.0056 58° Northeast 437 503 33,500 -1,560 Descending Washington Center
08:51AM 38.4144 -76.8717 58° Northeast 437 503 31,900 -1,500 Descending Washington Center
08:52AM 38.4806 -76.7375 56° Northeast 437 503 30,500 -1,500 Descending Washington Center
08:53AM 38.5506 -76.6031 59° Northeast 437 503 29,000 -1,380 Descending Washington Center
08:54AM 38.6161 -76.4658 58° Northeast 442 509 27,800 -1,020 Descending Washington Center
08:55AM 38.6756 -76.3442 58° Northeast 448 516 27,000 -420 Descending Washington Center
08:56AM 38.7408 -76.2092 57° Northeast 448 516 27,000  Level Washington Center
08:57AM 38.8122 -76.0658 58° Northeast 448 516 27,000  Level Washington Center
08:58AM 38.8775 -75.9331 57° Northeast 448 516 27,000  Level Washington Center
08:59AM 38.9486 -75.7944 39° Northeast 448 516 27,000  Level Washington Center
09:00AM 39.0444 -75.6958 36° Northeast 442 509 27,000  Level Washington Center
09:01AM 39.1447 -75.6022 36° Northeast 436 502 27,000  Level Washington Center
09:02AM 39.2447 -75.5086 35° Northeast 442 509 27,000  Level Washington Center
09:03AM 39.3447 -75.4172 34° Northeast 442 509 27,000 -660 Level Washington Center
09:04AM 39.4486 -75.3281 35° Northeast 442 509 25,800 -1,920 Descending Washington Center
09:05AM 39.5483 -75.2364 36° Northeast 442 509 23,300 -2,520 Descending Washington Center
09:06AM 39.6397 -75.1497 35° Northeast 435 501 20,800 -2,220 Descending Washington Center
09:07AM 39.7228 -75.0736 32° Northeast 414 476 18,900 -1,920 Descending Washington Center
09:08AM 39.8161 -74.9972 39° Northeast 380 437 17,000 -1,980 Descending Washington Center
09:10AM 39.9611 -74.8444 47° Northeast 354 407 13,100 -1,920 Descending Washington Center
09:11AM 40.0253 -74.7542 49° Northeast 340 391 11,400 -1,620 Descending Washington Center
09:12AM 40.0833 -74.6667 47° Northeast 318 366 10,100 -540 Descending New York TRACON
09:14AM 40.2000 -74.5000 44° Northeast 325 374 10,000 -60 Descending New York TRACON
09:15AM 40.2667 -74.4167 45° Northeast 303 349 10,000 -660 Level New York TRACON
09:16AM 40.3167 -74.3500 45° Northeast 268 308 8,700 -1,320 Descending New York TRACON
09:17AM 40.3667 -74.2833 45° Northeast 273 314 7,400 -900 Descending New York TRACON
09:18AM 40.4167 -74.2167 45° Northeast 270 311 7,000 -240 Descending New York TRACON
09:19AM 40.4667 -74.1500 30° Northeast 266 306 7,000 -360 Level New York TRACON
09:20AM 40.5333 -74.1000 21° North 261 300 6,400 -960 Descending New York TRACON
09:21AM 40.6000 -74.0667 North 262 302 5,000 -1,200 Descending New York TRACON
09:22AM 40.6833 -74.0500 24° Northeast 263 303 4,000 -300 Descending New York TRACON
09:25AM 40.8833 -73.9333 56° Northeast 260 299 4,000 -240 Level New York TRACON
09:27AM 40.9500 -73.8000 143° Southeast 245 282 3,000 -420 Descending New York TRACON
09:28AM 40.9167 -73.7667 211° Southwest 195 224 2,900 -720 Descending New York TRACON
09:30AM 40.8333 -73.8333 211° Southwest 139 160 1,000 -960 Descending New York TRACON